Lakewood, New York
Current Conditions -  °F | °C
As of 10:55 AM on Saturday 25 Oct 2014 (Local Time) from KJHW Reporting Station
Overcast Overcast  
Wind Chill: 54°   Ceiling: 9000
Heat Index: 54°   Visibility: 10mi
Dew Point: 45°   Wind: 13mph
Humidity: 72%   Direction: 220°SW
Pressure: 29.82"   Gusts: NA
Location:  42.1°N, 79.33°W
Report Text: KJHW 251455Z AUTO 22011KT 10SM OVC090 12/07 A2982 RMK AO1 57020
Loading
Personal Weather Stations






























Interactive Weather Map
Tropical Storm Tracking
New forecast layout! Learn more

10-Day Weather Forecast

Advertisements
Track Severe Weather on mobile